sensor_id;sensor_type;location;lat;lon;timestamp;P1;durP1;ratioP1;P2;durP2;ratioP2
11443;SDS011;5778;47.856;12.154;2022-12-18T00:00:11;28.30;;;17.47;;
11443;SDS011;5778;47.856;12.154;2022-12-18T00:02:44;27.07;;;17.37;;
11443;SDS011;5778;47.856;12.154;2022-12-18T00:05:11;27.77;;;16.27;;
11443;SDS011;5778;47.856;12.154;2022-12-18T00:07:38;29.40;;;17.77;;
11443;SDS011;5778;47.856;12.154;2022-12-18T00:10:05;28.40;;;17.70;;
11443;SDS011;5778;47.856;12.154;2022-12-18T00:12:34;29.97;;;18.00;;
11443;SDS011;5778;47.856;12.154;2022-12-18T00:15:01;32.80;;;19.07;;
11443;SDS011;5778;47.856;12.154;2022-12-18T00:17:29;35.13;;;20.13;;
11443;SDS011;5778;47.856;12.154;2022-12-18T00:19:56;35.67;;;19.77;;
11443;SDS011;5778;47.856;12.154;2022-12-18T00:22:23;32.17;;;18.77;;
11443;SDS011;5778;47.856;12.154;2022-12-18T00:24:50;36.13;;;19.27;;
11443;SDS011;5778;47.856;12.154;2022-12-18T00:27:17;33.43;;;19.83;;
11443;SDS011;5778;47.856;12.154;2022-12-18T00:29:45;35.07;;;19.47;;
11443;SDS011;5778;47.856;12.154;2022-12-18T00:32:12;35.23;;;19.63;;
11443;SDS011;5778;47.856;12.154;2022-12-18T00:34:38;39.67;;;19.40;;
11443;SDS011;5778;47.856;12.154;2022-12-18T00:37:05;35.10;;;20.07;;
11443;SDS011;5778;47.856;12.154;2022-12-18T00:39:33;35.13;;;20.10;;
11443;SDS011;5778;47.856;12.154;2022-12-18T00:42:00;33.63;;;18.93;;
11443;SDS011;5778;47.856;12.154;2022-12-18T00:44:45;32.93;;;19.87;;
11443;SDS011;5778;47.856;12.154;2022-12-18T00:47:12;37.40;;;20.03;;
11443;SDS011;5778;47.856;12.154;2022-12-18T00:49:39;36.23;;;20.03;;
11443;SDS011;5778;47.856;12.154;2022-12-18T00:52:07;35.60;;;19.97;;
11443;SDS011;5778;47.856;12.154;2022-12-18T00:54:35;35.30;;;20.23;;
11443;SDS011;5778;47.856;12.154;2022-12-18T00:57:02;33.30;;;19.63;;
11443;SDS011;5778;47.856;12.154;2022-12-18T00:59:29;34.87;;;19.53;;
11443;SDS011;5778;47.856;12.154;2022-12-18T01:01:58;36.20;;;19.40;;
11443;SDS011;5778;47.856;12.154;2022-12-18T01:04:25;36.33;;;20.50;;
11443;SDS011;5778;47.856;12.154;2022-12-18T01:06:52;36.20;;;19.77;;
11443;SDS011;5778;47.856;12.154;2022-12-18T01:09:19;43.37;;;21.90;;
11443;SDS011;5778;47.856;12.154;2022-12-18T01:11:46;36.57;;;20.57;;
11443;SDS011;5778;47.856;12.154;2022-12-18T01:14:13;39.03;;;20.67;;
11443;SDS011;5778;47.856;12.154;2022-12-18T01:16:41;38.27;;;20.80;;
11443;SDS011;5778;47.856;12.154;2022-12-18T01:19:10;34.57;;;20.57;;
11443;SDS011;5778;47.856;12.154;2022-12-18T01:21:37;39.73;;;20.90;;
11443;SDS011;5778;47.856;12.154;2022-12-18T01:24:04;41.57;;;22.57;;
11443;SDS011;5778;47.856;12.154;2022-12-18T01:26:32;39.23;;;20.43;;
11443;SDS011;5778;47.856;12.154;2022-12-18T01:29:00;38.10;;;21.17;;
11443;SDS011;5778;47.856;12.154;2022-12-18T01:31:28;43.13;;;23.17;;
11443;SDS011;5778;47.856;12.154;2022-12-18T01:34:01;40.93;;;22.40;;
11443;SDS011;5778;47.856;12.154;2022-12-18T01:36:31;44.83;;;23.23;;
11443;SDS011;5778;47.856;12.154;2022-12-18T01:38:59;40.30;;;22.13;;
11443;SDS011;5778;47.856;12.154;2022-12-18T01:41:29;41.97;;;22.77;;
11443;SDS011;5778;47.856;12.154;2022-12-18T01:47:31;44.50;;;21.83;;
11443;SDS011;5778;47.856;12.154;2022-12-18T01:50:02;39.63;;;21.43;;
11443;SDS011;5778;47.856;12.154;2022-12-18T01:52:34;35.23;;;19.97;;
11443;SDS011;5778;47.856;12.154;2022-12-18T01:55:06;36.77;;;19.50;;
11443;SDS011;5778;47.856;12.154;2022-12-18T01:57:35;32.97;;;19.63;;
11443;SDS011;5778;47.856;12.154;2022-12-18T02:00:05;37.47;;;20.17;;
11443;SDS011;5778;47.856;12.154;2022-12-18T02:02:40;38.27;;;19.20;;
11443;SDS011;5778;47.856;12.154;2022-12-18T02:05:09;37.27;;;20.00;;
11443;SDS011;5778;47.856;12.154;2022-12-18T02:07:42;35.07;;;19.70;;
11443;SDS011;5778;47.856;12.154;2022-12-18T02:10:17;37.80;;;20.90;;
11443;SDS011;5778;47.856;12.154;2022-12-18T02:12:52;35.50;;;19.50;;
11443;SDS011;5778;47.856;12.154;2022-12-18T02:15:24;36.87;;;20.67;;
11443;SDS011;5778;47.856;12.154;2022-12-18T02:17:59;34.33;;;20.40;;
11443;SDS011;5778;47.856;12.154;2022-12-18T02:20:34;36.30;;;19.90;;
11443;SDS011;5778;47.856;12.154;2022-12-18T02:23:11;37.10;;;21.13;;
11443;SDS011;5778;47.856;12.154;2022-12-18T02:26:04;35.80;;;20.67;;
11443;SDS011;5778;47.856;12.154;2022-12-18T02:28:37;40.80;;;20.67;;
11443;SDS011;5778;47.856;12.154;2022-12-18T02:31:11;38.43;;;20.93;;
11443;SDS011;5778;47.856;12.154;2022-12-18T02:33:42;39.83;;;21.43;;
11443;SDS011;5778;47.856;12.154;2022-12-18T02:36:12;48.13;;;23.43;;
11443;SDS011;5778;47.856;12.154;2022-12-18T02:38:42;40.03;;;21.73;;
11443;SDS011;5778;47.856;12.154;2022-12-18T02:41:14;43.00;;;22.47;;
11443;SDS011;5778;47.856;12.154;2022-12-18T02:43:46;44.53;;;23.27;;
11443;SDS011;5778;47.856;12.154;2022-12-18T02:46:24;40.07;;;21.77;;
11443;SDS011;5778;47.856;12.154;2022-12-18T02:49:12;41.53;;;23.20;;
11443;SDS011;5778;47.856;12.154;2022-12-18T02:51:48;44.40;;;23.33;;
11443;SDS011;5778;47.856;12.154;2022-12-18T02:54:26;42.60;;;22.50;;
11443;SDS011;5778;47.856;12.154;2022-12-18T02:57:05;43.93;;;23.53;;
11443;SDS011;5778;47.856;12.154;2022-12-18T02:59:47;40.87;;;21.53;;
11443;SDS011;5778;47.856;12.154;2022-12-18T03:02:22;38.93;;;21.53;;
11443;SDS011;5778;47.856;12.154;2022-12-18T03:04:55;39.80;;;20.90;;
11443;SDS011;5778;47.856;12.154;2022-12-18T03:07:32;41.47;;;22.63;;
11443;SDS011;5778;47.856;12.154;2022-12-18T03:10:06;41.47;;;22.53;;
11443;SDS011;5778;47.856;12.154;2022-12-18T03:12:40;48.87;;;24.27;;
11443;SDS011;5778;47.856;12.154;2022-12-18T03:15:12;46.33;;;24.20;;
11443;SDS011;5778;47.856;12.154;2022-12-18T03:17:50;52.70;;;27.37;;
11443;SDS011;5778;47.856;12.154;2022-12-18T03:20:25;44.67;;;23.60;;
11443;SDS011;5778;47.856;12.154;2022-12-18T03:22:59;47.97;;;25.17;;
11443;SDS011;5778;47.856;12.154;2022-12-18T03:25:34;49.70;;;25.80;;
11443;SDS011;5778;47.856;12.154;2022-12-18T03:28:05;50.40;;;25.40;;
11443;SDS011;5778;47.856;12.154;2022-12-18T03:30:37;43.17;;;24.00;;
11443;SDS011;5778;47.856;12.154;2022-12-18T03:33:08;40.77;;;22.17;;
11443;SDS011;5778;47.856;12.154;2022-12-18T03:35:43;39.63;;;21.33;;
11443;SDS011;5778;47.856;12.154;2022-12-18T03:38:11;39.93;;;23.30;;
11443;SDS011;5778;47.856;12.154;2022-12-18T03:40:45;41.93;;;22.50;;
11443;SDS011;5778;47.856;12.154;2022-12-18T03:43:32;43.93;;;22.40;;
11443;SDS011;5778;47.856;12.154;2022-12-18T03:46:11;42.60;;;22.73;;
11443;SDS011;5778;47.856;12.154;2022-12-18T03:48:48;45.37;;;23.33;;
11443;SDS011;5778;47.856;12.154;2022-12-18T03:51:24;43.33;;;23.23;;
11443;SDS011;5778;47.856;12.154;2022-12-18T03:53:57;46.60;;;23.50;;
11443;SDS011;5778;47.856;12.154;2022-12-18T03:56:32;44.83;;;22.97;;
11443;SDS011;5778;47.856;12.154;2022-12-18T03:59:05;46.67;;;25.00;;
11443;SDS011;5778;47.856;12.154;2022-12-18T04:01:38;46.73;;;25.17;;
11443;SDS011;5778;47.856;12.154;2022-12-18T04:04:13;47.57;;;24.13;;
11443;SDS011;5778;47.856;12.154;2022-12-18T04:06:44;46.97;;;24.50;;
11443;SDS011;5778;47.856;12.154;2022-12-18T04:09:17;45.57;;;23.07;;
11443;SDS011;5778;47.856;12.154;2022-12-18T04:11:46;41.20;;;23.67;;
11443;SDS011;5778;47.856;12.154;2022-12-18T04:14:20;44.87;;;23.63;;
11443;SDS011;5778;47.856;12.154;2022-12-18T04:16:52;46.43;;;23.77;;
11443;SDS011;5778;47.856;12.154;2022-12-18T04:19:24;47.50;;;24.60;;
11443;SDS011;5778;47.856;12.154;2022-12-18T04:21:53;41.93;;;23.20;;
11443;SDS011;5778;47.856;12.154;2022-12-18T04:24:20;42.97;;;22.53;;
11443;SDS011;5778;47.856;12.154;2022-12-18T04:27:01;44.33;;;22.77;;
11443;SDS011;5778;47.856;12.154;2022-12-18T04:29:35;44.40;;;22.30;;
11443;SDS011;5778;47.856;12.154;2022-12-18T04:32:03;42.97;;;21.77;;
11443;SDS011;5778;47.856;12.154;2022-12-18T04:34:31;44.93;;;22.43;;
11443;SDS011;5778;47.856;12.154;2022-12-18T04:36:59;41.90;;;22.17;;
11443;SDS011;5778;47.856;12.154;2022-12-18T04:39:26;41.40;;;20.57;;
11443;SDS011;5778;47.856;12.154;2022-12-18T04:41:57;42.07;;;20.90;;
11443;SDS011;5778;47.856;12.154;2022-12-18T04:44:27;36.97;;;21.07;;
11443;SDS011;5778;47.856;12.154;2022-12-18T04:46:57;38.47;;;20.00;;
11443;SDS011;5778;47.856;12.154;2022-12-18T04:49:24;36.80;;;20.37;;
11443;SDS011;5778;47.856;12.154;2022-12-18T04:51:50;39.53;;;20.90;;
11443;SDS011;5778;47.856;12.154;2022-12-18T04:54:19;36.70;;;19.97;;
11443;SDS011;5778;47.856;12.154;2022-12-18T04:56:47;37.83;;;20.43;;
11443;SDS011;5778;47.856;12.154;2022-12-18T04:59:15;40.07;;;19.90;;
11443;SDS011;5778;47.856;12.154;2022-12-18T05:01:43;37.60;;;19.20;;
11443;SDS011;5778;47.856;12.154;2022-12-18T05:04:16;42.87;;;21.63;;
11443;SDS011;5778;47.856;12.154;2022-12-18T05:06:43;39.30;;;19.37;;
11443;SDS011;5778;47.856;12.154;2022-12-18T05:09:10;41.17;;;19.60;;
11443;SDS011;5778;47.856;12.154;2022-12-18T05:11:37;44.27;;;21.03;;
11443;SDS011;5778;47.856;12.154;2022-12-18T05:14:03;37.90;;;20.13;;
11443;SDS011;5778;47.856;12.154;2022-12-18T05:16:30;41.03;;;20.00;;
11443;SDS011;5778;47.856;12.154;2022-12-18T05:18:58;35.87;;;19.37;;
11443;SDS011;5778;47.856;12.154;2022-12-18T05:21:26;38.10;;;20.70;;
11443;SDS011;5778;47.856;12.154;2022-12-18T05:23:53;40.07;;;20.27;;
11443;SDS011;5778;47.856;12.154;2022-12-18T05:26:21;40.10;;;20.30;;
11443;SDS011;5778;47.856;12.154;2022-12-18T05:28:48;41.30;;;20.17;;
11443;SDS011;5778;47.856;12.154;2022-12-18T05:31:15;36.83;;;18.33;;
11443;SDS011;5778;47.856;12.154;2022-12-18T05:33:42;37.63;;;20.43;;
11443;SDS011;5778;47.856;12.154;2022-12-18T05:36:10;34.33;;;18.37;;
11443;SDS011;5778;47.856;12.154;2022-12-18T05:38:40;37.60;;;19.30;;
11443;SDS011;5778;47.856;12.154;2022-12-18T05:41:08;34.47;;;19.13;;
11443;SDS011;5778;47.856;12.154;2022-12-18T05:43:35;33.27;;;18.37;;
11443;SDS011;5778;47.856;12.154;2022-12-18T05:46:04;33.50;;;18.37;;
11443;SDS011;5778;47.856;12.154;2022-12-18T05:48:33;37.03;;;19.67;;
11443;SDS011;5778;47.856;12.154;2022-12-18T05:51:04;35.70;;;18.50;;
11443;SDS011;5778;47.856;12.154;2022-12-18T05:53:32;34.33;;;18.60;;
11443;SDS011;5778;47.856;12.154;2022-12-18T05:56:02;34.47;;;18.10;;
11443;SDS011;5778;47.856;12.154;2022-12-18T05:58:30;35.30;;;17.93;;
11443;SDS011;5778;47.856;12.154;2022-12-18T06:01:05;32.73;;;18.33;;
11443;SDS011;5778;47.856;12.154;2022-12-18T06:03:35;36.53;;;18.00;;
11443;SDS011;5778;47.856;12.154;2022-12-18T06:06:02;31.20;;;17.10;;
11443;SDS011;5778;47.856;12.154;2022-12-18T06:08:29;28.03;;;16.27;;
11443;SDS011;5778;47.856;12.154;2022-12-18T06:10:56;32.60;;;17.77;;
11443;SDS011;5778;47.856;12.154;2022-12-18T06:13:25;31.43;;;17.93;;
11443;SDS011;5778;47.856;12.154;2022-12-18T06:15:52;33.33;;;17.87;;
11443;SDS011;5778;47.856;12.154;2022-12-18T06:18:21;32.03;;;17.73;;
11443;SDS011;5778;47.856;12.154;2022-12-18T06:20:54;34.20;;;17.93;;
11443;SDS011;5778;47.856;12.154;2022-12-18T06:23:22;35.10;;;18.63;;
11443;SDS011;5778;47.856;12.154;2022-12-18T06:25:49;35.93;;;18.43;;
11443;SDS011;5778;47.856;12.154;2022-12-18T06:28:15;34.10;;;17.57;;
11443;SDS011;5778;47.856;12.154;2022-12-18T06:30:44;33.27;;;17.63;;
11443;SDS011;5778;47.856;12.154;2022-12-18T06:33:11;36.17;;;17.93;;
11443;SDS011;5778;47.856;12.154;2022-12-18T06:35:38;32.27;;;17.73;;
11443;SDS011;5778;47.856;12.154;2022-12-18T06:38:07;40.13;;;17.53;;
11443;SDS011;5778;47.856;12.154;2022-12-18T06:40:35;38.37;;;18.27;;
11443;SDS011;5778;47.856;12.154;2022-12-18T06:43:04;33.80;;;16.87;;
11443;SDS011;5778;47.856;12.154;2022-12-18T06:45:31;42.90;;;18.83;;
11443;SDS011;5778;47.856;12.154;2022-12-18T06:47:59;41.00;;;19.00;;
11443;SDS011;5778;47.856;12.154;2022-12-18T06:50:27;37.57;;;19.13;;
11443;SDS011;5778;47.856;12.154;2022-12-18T06:52:54;38.43;;;19.53;;
11443;SDS011;5778;47.856;12.154;2022-12-18T06:55:21;37.27;;;19.17;;
11443;SDS011;5778;47.856;12.154;2022-12-18T06:57:47;41.17;;;19.73;;
11443;SDS011;5778;47.856;12.154;2022-12-18T07:00:14;37.33;;;18.63;;
11443;SDS011;5778;47.856;12.154;2022-12-18T07:02:41;38.40;;;19.57;;
11443;SDS011;5778;47.856;12.154;2022-12-18T07:05:10;39.97;;;19.33;;
11443;SDS011;5778;47.856;12.154;2022-12-18T07:07:37;37.30;;;19.33;;
11443;SDS011;5778;47.856;12.154;2022-12-18T07:10:04;37.83;;;18.50;;
11443;SDS011;5778;47.856;12.154;2022-12-18T07:12:31;39.17;;;18.70;;
11443;SDS011;5778;47.856;12.154;2022-12-18T07:14:58;37.63;;;19.13;;
11443;SDS011;5778;47.856;12.154;2022-12-18T07:17:25;37.17;;;19.23;;
11443;SDS011;5778;47.856;12.154;2022-12-18T07:19:52;35.67;;;18.43;;
11443;SDS011;5778;47.856;12.154;2022-12-18T07:22:20;37.60;;;19.47;;
11443;SDS011;5778;47.856;12.154;2022-12-18T07:24:49;37.53;;;18.57;;
11443;SDS011;5778;47.856;12.154;2022-12-18T07:27:16;38.23;;;19.47;;
11443;SDS011;5778;47.856;12.154;2022-12-18T07:29:43;38.13;;;18.60;;
11443;SDS011;5778;47.856;12.154;2022-12-18T07:32:10;38.60;;;19.00;;
11443;SDS011;5778;47.856;12.154;2022-12-18T07:34:38;35.03;;;17.77;;
11443;SDS011;5778;47.856;12.154;2022-12-18T07:37:04;35.93;;;19.50;;
11443;SDS011;5778;47.856;12.154;2022-12-18T07:39:33;31.73;;;17.97;;
11443;SDS011;5778;47.856;12.154;2022-12-18T07:42:00;33.50;;;16.97;;
11443;SDS011;5778;47.856;12.154;2022-12-18T07:44:41;30.23;;;16.23;;
11443;SDS011;5778;47.856;12.154;2022-12-18T07:47:08;31.10;;;16.77;;
11443;SDS011;5778;47.856;12.154;2022-12-18T07:49:35;35.77;;;17.67;;
11443;SDS011;5778;47.856;12.154;2022-12-18T07:52:01;35.30;;;18.40;;
11443;SDS011;5778;47.856;12.154;2022-12-18T07:54:28;31.67;;;16.50;;
11443;SDS011;5778;47.856;12.154;2022-12-18T07:56:57;32.37;;;17.83;;
11443;SDS011;5778;47.856;12.154;2022-12-18T07:59:23;33.83;;;18.07;;
11443;SDS011;5778;47.856;12.154;2022-12-18T08:01:50;33.33;;;18.63;;
11443;SDS011;5778;47.856;12.154;2022-12-18T08:04:18;35.13;;;17.87;;
11443;SDS011;5778;47.856;12.154;2022-12-18T08:06:45;34.27;;;17.03;;
11443;SDS011;5778;47.856;12.154;2022-12-18T08:09:12;35.57;;;17.80;;
11443;SDS011;5778;47.856;12.154;2022-12-18T08:11:39;32.20;;;17.73;;
11443;SDS011;5778;47.856;12.154;2022-12-18T08:14:08;39.30;;;18.37;;
11443;SDS011;5778;47.856;12.154;2022-12-18T08:16:35;33.57;;;18.13;;
11443;SDS011;5778;47.856;12.154;2022-12-18T08:19:02;34.20;;;16.97;;
11443;SDS011;5778;47.856;12.154;2022-12-18T08:21:30;41.27;;;19.57;;
11443;SDS011;5778;47.856;12.154;2022-12-18T08:23:58;35.00;;;18.60;;
11443;SDS011;5778;47.856;12.154;2022-12-18T08:26:27;36.03;;;18.13;;
11443;SDS011;5778;47.856;12.154;2022-12-18T08:28:55;34.97;;;17.90;;
11443;SDS011;5778;47.856;12.154;2022-12-18T08:31:26;35.97;;;18.60;;
11443;SDS011;5778;47.856;12.154;2022-12-18T08:33:54;36.07;;;17.27;;
11443;SDS011;5778;47.856;12.154;2022-12-18T08:36:21;35.07;;;18.20;;
11443;SDS011;5778;47.856;12.154;2022-12-18T08:38:49;31.80;;;16.93;;
11443;SDS011;5778;47.856;12.154;2022-12-18T08:41:17;36.07;;;18.50;;
11443;SDS011;5778;47.856;12.154;2022-12-18T08:43:44;35.53;;;18.20;;
11443;SDS011;5778;47.856;12.154;2022-12-18T08:46:32;37.17;;;18.53;;
11443;SDS011;5778;47.856;12.154;2022-12-18T08:49:02;35.63;;;17.40;;
11443;SDS011;5778;47.856;12.154;2022-12-18T08:51:29;36.00;;;18.13;;
11443;SDS011;5778;47.856;12.154;2022-12-18T08:53:57;31.13;;;16.97;;
11443;SDS011;5778;47.856;12.154;2022-12-18T08:56:24;31.37;;;18.37;;
11443;SDS011;5778;47.856;12.154;2022-12-18T08:58:51;34.37;;;17.50;;
11443;SDS011;5778;47.856;12.154;2022-12-18T09:01:19;36.90;;;18.57;;
11443;SDS011;5778;47.856;12.154;2022-12-18T09:03:47;35.07;;;18.57;;
11443;SDS011;5778;47.856;12.154;2022-12-18T09:06:15;33.83;;;18.07;;
11443;SDS011;5778;47.856;12.154;2022-12-18T09:08:42;32.90;;;17.10;;
11443;SDS011;5778;47.856;12.154;2022-12-18T09:11:11;33.60;;;18.97;;
11443;SDS011;5778;47.856;12.154;2022-12-18T09:13:41;31.40;;;17.03;;
11443;SDS011;5778;47.856;12.154;2022-12-18T09:16:07;36.33;;;17.33;;
11443;SDS011;5778;47.856;12.154;2022-12-18T09:18:35;32.70;;;17.67;;
11443;SDS011;5778;47.856;12.154;2022-12-18T09:21:08;31.57;;;17.80;;
11443;SDS011;5778;47.856;12.154;2022-12-18T09:23:36;33.83;;;17.30;;
11443;SDS011;5778;47.856;12.154;2022-12-18T09:26:03;30.60;;;16.53;;
11443;SDS011;5778;47.856;12.154;2022-12-18T09:28:30;29.57;;;16.83;;
11443;SDS011;5778;47.856;12.154;2022-12-18T09:30:57;31.97;;;17.43;;
11443;SDS011;5778;47.856;12.154;2022-12-18T09:33:25;30.73;;;17.07;;
11443;SDS011;5778;47.856;12.154;2022-12-18T09:35:52;32.30;;;16.50;;
11443;SDS011;5778;47.856;12.154;2022-12-18T09:38:20;31.67;;;16.93;;
11443;SDS011;5778;47.856;12.154;2022-12-18T09:40:49;29.70;;;15.73;;
11443;SDS011;5778;47.856;12.154;2022-12-18T09:43:20;29.87;;;15.83;;
11443;SDS011;5778;47.856;12.154;2022-12-18T09:45:51;28.93;;;16.27;;
11443;SDS011;5778;47.856;12.154;2022-12-18T09:48:26;28.53;;;15.53;;
11443;SDS011;5778;47.856;12.154;2022-12-18T09:50:57;29.63;;;16.73;;
11443;SDS011;5778;47.856;12.154;2022-12-18T09:53:33;27.17;;;15.93;;
11443;SDS011;5778;47.856;12.154;2022-12-18T09:56:04;23.90;;;15.03;;
11443;SDS011;5778;47.856;12.154;2022-12-18T09:58:34;25.97;;;16.47;;
11443;SDS011;5778;47.856;12.154;2022-12-18T10:01:06;26.33;;;14.03;;
11443;SDS011;5778;47.856;12.154;2022-12-18T10:03:36;28.67;;;14.70;;
11443;SDS011;5778;47.856;12.154;2022-12-18T10:06:04;29.83;;;16.90;;
11443;SDS011;5778;47.856;12.154;2022-12-18T10:08:42;29.03;;;15.40;;
11443;SDS011;5778;47.856;12.154;2022-12-18T10:11:24;24.20;;;14.90;;
11443;SDS011;5778;47.856;12.154;2022-12-18T10:14:18;29.13;;;15.27;;
11443;SDS011;5778;47.856;12.154;2022-12-18T10:16:53;27.37;;;16.07;;
11443;SDS011;5778;47.856;12.154;2022-12-18T10:19:28;28.63;;;15.77;;
11443;SDS011;5778;47.856;12.154;2022-12-18T10:22:07;26.40;;;14.87;;
11443;SDS011;5778;47.856;12.154;2022-12-18T10:24:45;25.97;;;15.47;;
11443;SDS011;5778;47.856;12.154;2022-12-18T10:27:21;27.87;;;15.70;;
11443;SDS011;5778;47.856;12.154;2022-12-18T10:29:49;27.43;;;14.83;;
11443;SDS011;5778;47.856;12.154;2022-12-18T10:32:17;28.40;;;15.90;;
11443;SDS011;5778;47.856;12.154;2022-12-18T10:34:45;28.47;;;16.53;;
11443;SDS011;5778;47.856;12.154;2022-12-18T10:37:14;29.40;;;16.27;;
11443;SDS011;5778;47.856;12.154;2022-12-18T10:39:46;29.43;;;16.50;;
11443;SDS011;5778;47.856;12.154;2022-12-18T10:42:16;27.27;;;15.10;;
11443;SDS011;5778;47.856;12.154;2022-12-18T10:44:44;25.23;;;15.70;;
11443;SDS011;5778;47.856;12.154;2022-12-18T10:47:12;26.80;;;15.83;;
11443;SDS011;5778;47.856;12.154;2022-12-18T10:49:47;30.13;;;15.47;;
11443;SDS011;5778;47.856;12.154;2022-12-18T10:52:17;27.27;;;16.00;;
11443;SDS011;5778;47.856;12.154;2022-12-18T10:54:48;25.83;;;16.10;;
11443;SDS011;5778;47.856;12.154;2022-12-18T10:57:19;27.80;;;15.77;;
11443;SDS011;5778;47.856;12.154;2022-12-18T10:59:59;30.53;;;17.23;;
11443;SDS011;5778;47.856;12.154;2022-12-18T11:02:45;30.20;;;16.10;;
11443;SDS011;5778;47.856;12.154;2022-12-18T11:05:23;30.10;;;16.47;;
11443;SDS011;5778;47.856;12.154;2022-12-18T11:07:51;28.87;;;15.73;;
11443;SDS011;5778;47.856;12.154;2022-12-18T11:10:21;33.43;;;17.73;;
11443;SDS011;5778;47.856;12.154;2022-12-18T11:12:49;36.77;;;18.97;;
11443;SDS011;5778;47.856;12.154;2022-12-18T11:15:19;36.40;;;20.23;;
11443;SDS011;5778;47.856;12.154;2022-12-18T11:17:48;32.80;;;16.77;;
11443;SDS011;5778;47.856;12.154;2022-12-18T11:20:21;40.30;;;21.30;;
11443;SDS011;5778;47.856;12.154;2022-12-18T11:22:56;36.93;;;19.67;;
11443;SDS011;5778;47.856;12.154;2022-12-18T11:25:28;32.40;;;18.20;;
11443;SDS011;5778;47.856;12.154;2022-12-18T11:27:56;31.90;;;17.87;;
11443;SDS011;5778;47.856;12.154;2022-12-18T11:30:26;31.80;;;18.93;;
11443;SDS011;5778;47.856;12.154;2022-12-18T11:32:59;30.70;;;18.40;;
11443;SDS011;5778;47.856;12.154;2022-12-18T11:35:33;30.17;;;16.87;;
11443;SDS011;5778;47.856;12.154;2022-12-18T11:38:09;29.77;;;16.60;;
11443;SDS011;5778;47.856;12.154;2022-12-18T11:40:42;31.77;;;17.23;;
11443;SDS011;5778;47.856;12.154;2022-12-18T11:43:14;34.30;;;18.50;;
11443;SDS011;5778;47.856;12.154;2022-12-18T11:45:46;33.43;;;17.60;;
11443;SDS011;5778;47.856;12.154;2022-12-18T11:48:17;30.67;;;16.77;;
11443;SDS011;5778;47.856;12.154;2022-12-18T11:50:51;35.83;;;18.47;;
11443;SDS011;5778;47.856;12.154;2022-12-18T11:53:20;31.97;;;18.63;;
11443;SDS011;5778;47.856;12.154;2022-12-18T11:55:53;38.37;;;19.87;;
11443;SDS011;5778;47.856;12.154;2022-12-18T11:58:31;38.80;;;18.73;;
11443;SDS011;5778;47.856;12.154;2022-12-18T12:01:12;35.10;;;17.77;;
11443;SDS011;5778;47.856;12.154;2022-12-18T12:03:55;40.67;;;18.67;;
11443;SDS011;5778;47.856;12.154;2022-12-18T12:06:40;33.33;;;17.70;;
11443;SDS011;5778;47.856;12.154;2022-12-18T12:09:20;31.70;;;18.13;;
11443;SDS011;5778;47.856;12.154;2022-12-18T12:11:58;30.67;;;17.23;;
11443;SDS011;5778;47.856;12.154;2022-12-18T12:14:42;32.53;;;17.33;;
11443;SDS011;5778;47.856;12.154;2022-12-18T12:17:24;31.57;;;18.40;;
11443;SDS011;5778;47.856;12.154;2022-12-18T12:20:02;35.33;;;18.60;;
11443;SDS011;5778;47.856;12.154;2022-12-18T12:22:39;37.43;;;18.17;;
11443;SDS011;5778;47.856;12.154;2022-12-18T12:25:20;32.93;;;17.17;;
11443;SDS011;5778;47.856;12.154;2022-12-18T12:28:00;28.80;;;16.53;;
11443;SDS011;5778;47.856;12.154;2022-12-18T12:30:35;32.17;;;16.83;;
11443;SDS011;5778;47.856;12.154;2022-12-18T12:33:15;30.60;;;16.43;;
11443;SDS011;5778;47.856;12.154;2022-12-18T12:35:56;32.20;;;17.23;;
11443;SDS011;5778;47.856;12.154;2022-12-18T12:38:31;32.13;;;17.50;;
11443;SDS011;5778;47.856;12.154;2022-12-18T12:41:02;30.67;;;18.43;;
11443;SDS011;5778;47.856;12.154;2022-12-18T12:43:55;32.30;;;17.83;;
11443;SDS011;5778;47.856;12.154;2022-12-18T12:46:23;29.23;;;16.80;;
11443;SDS011;5778;47.856;12.154;2022-12-18T12:48:52;30.50;;;16.67;;
11443;SDS011;5778;47.856;12.154;2022-12-18T12:51:22;30.93;;;17.07;;
11443;SDS011;5778;47.856;12.154;2022-12-18T12:53:52;31.30;;;17.40;;
11443;SDS011;5778;47.856;12.154;2022-12-18T12:56:21;31.37;;;18.20;;
11443;SDS011;5778;47.856;12.154;2022-12-18T12:58:57;31.67;;;17.03;;
11443;SDS011;5778;47.856;12.154;2022-12-18T13:01:31;31.30;;;17.77;;
11443;SDS011;5778;47.856;12.154;2022-12-18T13:04:08;31.07;;;17.80;;
11443;SDS011;5778;47.856;12.154;2022-12-18T13:06:46;36.60;;;19.93;;
11443;SDS011;5778;47.856;12.154;2022-12-18T13:09:20;31.60;;;16.97;;
11443;SDS011;5778;47.856;12.154;2022-12-18T13:11:47;32.87;;;18.13;;
11443;SDS011;5778;47.856;12.154;2022-12-18T13:14:34;32.53;;;17.63;;
11443;SDS011;5778;47.856;12.154;2022-12-18T13:20:09;33.17;;;18.20;;
11443;SDS011;5778;47.856;12.154;2022-12-18T13:22:38;31.67;;;17.40;;
11443;SDS011;5778;47.856;12.154;2022-12-18T13:28:04;33.43;;;18.80;;
11443;SDS011;5778;47.856;12.154;2022-12-18T13:36:27;31.40;;;18.17;;
11443;SDS011;5778;47.856;12.154;2022-12-18T13:45:34;36.37;;;18.13;;
11443;SDS011;5778;47.856;12.154;2022-12-18T13:48:20;35.30;;;19.10;;
11443;SDS011;5778;47.856;12.154;2022-12-18T13:50:50;30.73;;;18.40;;
11443;SDS011;5778;47.856;12.154;2022-12-18T13:53:21;36.37;;;19.80;;
11443;SDS011;5778;47.856;12.154;2022-12-18T13:55:51;36.13;;;18.67;;
11443;SDS011;5778;47.856;12.154;2022-12-18T13:58:18;31.70;;;18.10;;
11443;SDS011;5778;47.856;12.154;2022-12-18T14:00:45;32.97;;;18.90;;
11443;SDS011;5778;47.856;12.154;2022-12-18T14:03:18;30.17;;;17.77;;
11443;SDS011;5778;47.856;12.154;2022-12-18T14:05:51;31.87;;;18.30;;
11443;SDS011;5778;47.856;12.154;2022-12-18T14:08:24;36.67;;;19.50;;
11443;SDS011;5778;47.856;12.154;2022-12-18T14:10:58;36.50;;;20.07;;
11443;SDS011;5778;47.856;12.154;2022-12-18T14:13:26;34.33;;;19.67;;
11443;SDS011;5778;47.856;12.154;2022-12-18T14:15:55;37.27;;;19.57;;
11443;SDS011;5778;47.856;12.154;2022-12-18T14:18:27;38.93;;;21.30;;
11443;SDS011;5778;47.856;12.154;2022-12-18T14:21:00;41.63;;;21.63;;
11443;SDS011;5778;47.856;12.154;2022-12-18T14:23:30;35.60;;;18.63;;
11443;SDS011;5778;47.856;12.154;2022-12-18T14:25:59;33.43;;;18.53;;
11443;SDS011;5778;47.856;12.154;2022-12-18T14:28:27;32.37;;;18.63;;
11443;SDS011;5778;47.856;12.154;2022-12-18T14:30:54;33.33;;;18.13;;
11443;SDS011;5778;47.856;12.154;2022-12-18T14:33:22;32.77;;;18.53;;
11443;SDS011;5778;47.856;12.154;2022-12-18T14:35:56;33.07;;;18.63;;
11443;SDS011;5778;47.856;12.154;2022-12-18T14:38:29;34.13;;;19.23;;
11443;SDS011;5778;47.856;12.154;2022-12-18T14:40:59;31.93;;;18.47;;
11443;SDS011;5778;47.856;12.154;2022-12-18T14:43:30;34.93;;;19.20;;
11443;SDS011;5778;47.856;12.154;2022-12-18T14:45:59;31.27;;;17.77;;
11443;SDS011;5778;47.856;12.154;2022-12-18T14:48:33;38.63;;;19.83;;
11443;SDS011;5778;47.856;12.154;2022-12-18T14:51:06;35.37;;;18.27;;
11443;SDS011;5778;47.856;12.154;2022-12-18T14:53:41;28.90;;;17.13;;
11443;SDS011;5778;47.856;12.154;2022-12-18T14:56:13;33.10;;;18.10;;
11443;SDS011;5778;47.856;12.154;2022-12-18T14:58:46;33.43;;;17.70;;
11443;SDS011;5778;47.856;12.154;2022-12-18T15:01:21;35.70;;;19.23;;
11443;SDS011;5778;47.856;12.154;2022-12-18T15:03:51;31.57;;;17.90;;